LFRC/CER METAR and TAF weather

Enter ICAO airport designator
Station Type Date Time Source
LFRC METAR 2019/08/25 18:00 UTC NOAA

LFRC 251800Z AUTO 30006KT CAVOK 18/16 Q1019


Station Type Date Time Source
LFRC Decoded METAR 2019/08/25 18:00 UTC NOAA

Station name not available
Aug 25, 2019 - 02:00 PM EDT / 2019.08.25 1800 UTC
Wind: from the WNW (300 degrees) at 7 MPH (6 KT):0
Visibility: greater than 7 mile(s):0
Temperature: 64 F (18 C)
Dew Point: 60 F (16 C)
Relative Humidity: 88%
Pressure (altimeter): 30.09 in. Hg (1019 hPa)
ob: LFRC 251800Z AUTO 30006KT CAVOK 18/16 Q1019
cycle: 18

Station Type Date Time Source
LFRC TAF 2008/10/12 17:07 UTC NOAA

TAF
AMD LFRC 121707Z 121721 CNL

Example: see airport list